Time;durP1;ratioP1;P1;durP2;ratioP2;P2;SDS_P1;SDS_P2;PMS_P1;PMS_P2;Temp;Humidity;BMP_temperature;BMP_pressure;BME280_temperature;BME280_humidity;BME280_pressure;Samples;Min_cycle;Max_cycle;Signal;HPM_P1;HPM_P2
2023/01/25 00:00:19;;;;;;;2.70;2.47;;;;;;;;;;5077129;28;20203;-87
2023/01/25 00:02:48;;;;;;;7.00;5.60;;;;;;;;;;5094837;28;20337;-87
2023/01/25 00:05:16;;;;;;;2.47;1.13;;;;;;;;;;5076984;28;20316;-88
2023/01/25 00:07:45;;;;;;;8.50;6.50;;;;;;;;;;5094809;28;20273;-88
2023/01/25 00:10:13;;;;;;;3.37;3.07;;;;;;;;;;5077222;28;20196;-88
2023/01/25 00:12:41;;;;;;;2.20;2.10;;;;;;;;;;5076956;28;20207;-87
2023/01/25 00:15:12;;;;;;;3.73;3.47;;;;;;;;;;5094533;28;20217;-87
2023/01/25 00:17:40;;;;;;;11.90;7.77;;;;;;;;;;5076918;28;20196;-88
2023/01/25 00:20:09;;;;;;;1.27;1.27;;;;;;;;;;5076741;28;20189;-87
2023/01/25 00:22:37;;;;;;;9.10;3.23;;;;;;;;;;5076495;28;20266;-88
2023/01/25 00:25:06;;;;;;;2.30;2.13;;;;;;;;;;5094950;28;20216;-88
2023/01/25 00:27:35;;;;;;;3.23;2.93;;;;;;;;;;5076685;28;20205;-87
2023/01/25 00:30:04;;;;;;;5.43;4.93;;;;;;;;;;5076404;28;20228;-87
2023/01/25 00:32:48;;;;;;;2.60;2.50;;;;;;;;;;5094729;28;20215;-87
2023/01/25 00:35:17;;;;;;;3.17;2.97;;;;;;;;;;5094425;28;20235;-87
2023/01/25 00:37:49;;;;;;;15.70;11.37;;;;;;;;;;5076337;28;20265;-87
2023/01/25 00:40:17;;;;;;;5.53;3.00;;;;;;;;;;5094164;28;20205;-87
2023/01/25 00:42:46;;;;;;;3.13;3.03;;;;;;;;;;5076231;28;20200;-87
2023/01/25 00:45:14;;;;;;;6.40;4.00;;;;;;;;;;5076113;28;20191;-87
2023/01/25 00:47:44;;;;;;;16.67;6.23;;;;;;;;;;5076479;28;20325;-88
2023/01/25 00:50:12;;;;;;;5.20;4.90;;;;;;;;;;5076031;28;20202;-87
2023/01/25 00:52:41;;;;;;;13.27;9.47;;;;;;;;;;5076076;28;20196;-87
2023/01/25 00:55:09;;;;;;;9.63;6.03;;;;;;;;;;5093632;28;20216;-87
2023/01/25 00:57:38;;;;;;;17.03;12.37;;;;;;;;;;5076255;28;20208;-87
2023/01/25 01:00:07;;;;;;;6.33;5.33;;;;;;;;;;5094210;28;20200;-87
2023/01/25 01:02:35;;;;;;;8.60;6.90;;;;;;;;;;5076284;28;20202;-88
2023/01/25 01:05:05;;;;;;;12.40;7.93;;;;;;;;;;5075933;28;20231;-88
2023/01/25 01:07:34;;;;;;;2.93;2.73;;;;;;;;;;5076244;28;20231;-87
2023/01/25 01:10:02;;;;;;;1.00;1.00;;;;;;;;;;5093818;28;20240;-87
2023/01/25 01:12:31;;;;;;;7.93;7.03;;;;;;;;;;5075577;28;20283;-87
2023/01/25 01:14:59;;;;;;;36.23;23.43;;;;;;;;;;5075863;28;20214;-88
2023/01/25 01:17:28;;;;;;;13.17;4.20;;;;;;;;;;5075796;28;20253;-87
2023/01/25 01:19:56;;;;;;;8.30;7.07;;;;;;;;;;5093714;28;20194;-87
2023/01/25 01:22:26;;;;;;;26.60;15.50;;;;;;;;;;5075721;28;20241;-87
2023/01/25 01:24:54;;;;;;;9.30;6.20;;;;;;;;;;5093196;28;20182;-88
2023/01/25 01:27:22;;;;;;;17.47;9.13;;;;;;;;;;5093659;28;20202;-88
2023/01/25 01:29:51;;;;;;;13.07;7.23;;;;;;;;;;5075647;28;20202;-87
2023/01/25 01:32:19;;;;;;;7.37;6.63;;;;;;;;;;5075674;28;20211;-87
2023/01/25 01:34:48;;;;;;;3.77;3.40;;;;;;;;;;5075686;28;20241;-88
2023/01/25 01:37:16;;;;;;;1.07;1.07;;;;;;;;;;5075902;28;20257;-87
2023/01/25 01:39:46;;;;;;;4.73;3.43;;;;;;;;;;5093916;28;20286;-88
2023/01/25 01:42:14;;;;;;;33.90;21.57;;;;;;;;;;5075803;28;20204;-88
2023/01/25 01:44:45;;;;;;;16.50;9.57;;;;;;;;;;5075354;28;20204;-88
2023/01/25 01:47:15;;;;;;;35.87;23.23;;;;;;;;;;5093461;28;20204;-88
2023/01/25 01:49:51;;;;;;;20.60;12.70;;;;;;;;;;5075742;28;20199;-87
2023/01/25 01:52:21;;;;;;;15.60;10.77;;;;;;;;;;5093269;28;20199;-87
2023/01/25 01:54:54;;;;;;;25.17;12.37;;;;;;;;;;5093237;28;20286;-88
2023/01/25 01:57:24;;;;;;;30.43;15.17;;;;;;;;;;5092506;28;20200;-88
2023/01/25 01:59:54;;;;;;;22.47;12.60;;;;;;;;;;5075509;28;20201;-87
2023/01/25 02:02:23;;;;;;;20.53;13.00;;;;;;;;;;5092422;28;20204;-88
2023/01/25 02:04:54;;;;;;;26.33;15.57;;;;;;;;;;5092097;28;20290;-87
2023/01/25 02:07:24;;;;;;;40.07;22.93;;;;;;;;;;5076252;28;20213;-87
2023/01/25 02:09:54;;;;;;;18.37;11.83;;;;;;;;;;5079207;28;20248;-87
2023/01/25 02:12:23;;;;;;;10.37;7.43;;;;;;;;;;5096196;28;20269;-88
2023/01/25 02:14:53;;;;;;;24.40;13.70;;;;;;;;;;5078972;28;20216;-88
2023/01/25 02:17:23;;;;;;;4.40;4.10;;;;;;;;;;5096870;28;20191;-87
2023/01/25 02:19:54;;;;;;;10.27;6.50;;;;;;;;;;5078959;28;20202;-87
2023/01/25 02:22:30;;;;;;;5.57;4.90;;;;;;;;;;5075564;28;20267;-88
2023/01/25 02:25:09;;;;;;;15.43;9.33;;;;;;;;;;5076755;28;20197;-88
2023/01/25 02:27:39;;;;;;;40.10;27.00;;;;;;;;;;5075416;28;20210;-88
2023/01/25 02:30:09;;;;;;;44.27;25.33;;;;;;;;;;5075724;28;20259;-87
2023/01/25 02:32:38;;;;;;;47.03;31.60;;;;;;;;;;5075463;28;20199;-88
2023/01/25 02:35:07;;;;;;;49.60;28.53;;;;;;;;;;5075338;28;20232;-88
2023/01/25 02:37:35;;;;;;;43.60;25.17;;;;;;;;;;5076517;28;20230;-88
2023/01/25 02:40:04;;;;;;;40.17;21.83;;;;;;;;;;5076396;28;20191;-88
2023/01/25 02:42:34;;;;;;;7.73;6.73;;;;;;;;;;5076428;28;20207;-87
2023/01/25 02:45:03;;;;;;;20.37;11.30;;;;;;;;;;5076397;28;20195;-88
2023/01/25 02:47:31;;;;;;;45.07;28.13;;;;;;;;;;5075900;28;20209;-87
2023/01/25 02:50:00;;;;;;;31.03;17.73;;;;;;;;;;5075125;28;20297;-88
2023/01/25 02:52:28;;;;;;;8.73;7.93;;;;;;;;;;5074838;28;20208;-87
2023/01/25 02:54:56;;;;;;;20.80;12.77;;;;;;;;;;5075379;28;20281;-88
2023/01/25 02:57:25;;;;;;;34.77;19.07;;;;;;;;;;5075779;28;20256;-87
2023/01/25 02:59:55;;;;;;;44.87;26.63;;;;;;;;;;5076297;28;20187;-87
2023/01/25 03:02:23;;;;;;;48.50;31.53;;;;;;;;;;5075733;28;20270;-87
2023/01/25 03:04:51;;;;;;;41.97;27.77;;;;;;;;;;5074747;28;20297;-87
2023/01/25 03:07:20;;;;;;;52.10;30.77;;;;;;;;;;5074790;28;20267;-87
2023/01/25 03:09:48;;;;;;;21.77;13.20;;;;;;;;;;5074887;28;20206;-88
2023/01/25 03:12:17;;;;;;;12.53;7.73;;;;;;;;;;5075712;28;20268;-88
2023/01/25 03:14:45;;;;;;;36.20;21.80;;;;;;;;;;5074567;28;20296;-88
2023/01/25 03:17:15;;;;;;;37.13;21.40;;;;;;;;;;5074478;28;20206;-88
2023/01/25 03:19:43;;;;;;;51.90;26.63;;;;;;;;;;5075543;28;20289;-88
2023/01/25 03:22:11;;;;;;;40.50;25.30;;;;;;;;;;5084028;28;20249;-88
2023/01/25 03:24:40;;;;;;;38.13;21.60;;;;;;;;;;5077991;28;20292;-87
2023/01/25 03:27:12;;;;;;;28.03;16.80;;;;;;;;;;5094844;28;20282;-88
2023/01/25 03:29:41;;;;;;;30.47;17.23;;;;;;;;;;5077759;28;20206;-88
2023/01/25 03:32:09;;;;;;;19.73;11.50;;;;;;;;;;5095209;28;20202;-88
2023/01/25 03:34:39;;;;;;;22.60;13.63;;;;;;;;;;5077860;28;20233;-88
2023/01/25 03:37:08;;;;;;;33.30;17.90;;;;;;;;;;5077447;28;20256;-88
2023/01/25 03:39:36;;;;;;;32.70;21.57;;;;;;;;;;5095570;28;20193;-88
2023/01/25 03:42:05;;;;;;;8.20;6.73;;;;;;;;;;5094598;28;20195;-88
2023/01/25 03:44:33;;;;;;;13.70;7.33;;;;;;;;;;5077697;28;20205;-88
2023/01/25 03:47:02;;;;;;;50.57;27.53;;;;;;;;;;5077253;28;20201;-88
2023/01/25 03:49:30;;;;;;;47.43;25.37;;;;;;;;;;5077141;28;20228;-87
2023/01/25 03:52:00;;;;;;;54.67;32.13;;;;;;;;;;5094090;28;20208;-88
2023/01/25 03:54:28;;;;;;;49.57;27.33;;;;;;;;;;5095375;28;20212;-88
2023/01/25 03:56:57;;;;;;;46.90;27.43;;;;;;;;;;5095271;28;20210;-88
2023/01/25 03:59:25;;;;;;;38.40;21.57;;;;;;;;;;5077102;28;20229;-88
2023/01/25 04:01:53;;;;;;;61.40;33.50;;;;;;;;;;5094439;28;20236;-88
2023/01/25 04:04:22;;;;;;;48.50;27.87;;;;;;;;;;5077483;28;20196;-88
2023/01/25 04:06:50;;;;;;;35.87;18.60;;;;;;;;;;5093793;28;20222;-88
2023/01/25 04:09:20;;;;;;;25.07;14.97;;;;;;;;;;5093555;28;20240;-87
2023/01/25 04:11:50;;;;;;;39.17;21.27;;;;;;;;;;5095168;28;20196;-88
2023/01/25 04:14:18;;;;;;;65.83;35.80;;;;;;;;;;5093720;28;20219;-88
2023/01/25 04:17:04;;;;;;;45.13;25.73;;;;;;;;;;5076549;28;20218;-88
2023/01/25 04:19:32;;;;;;;42.33;25.97;;;;;;;;;;5093407;28;20200;-88
2023/01/25 04:22:01;;;;;;;55.70;28.50;;;;;;;;;;5076867;28;20247;-88
2023/01/25 04:24:31;;;;;;;39.00;23.70;;;;;;;;;;5094002;28;20202;-88
2023/01/25 04:26:59;;;;;;;14.57;9.43;;;;;;;;;;5094738;28;20240;-88
2023/01/25 04:29:27;;;;;;;36.53;22.87;;;;;;;;;;5076443;28;20228;-88
2023/01/25 04:32:08;;;;;;;58.63;30.13;;;;;;;;;;5094297;28;20197;-88
2023/01/25 04:34:37;;;;;;;57.23;35.40;;;;;;;;;;5076258;28;20196;-87
2023/01/25 04:37:05;;;;;;;34.73;22.97;;;;;;;;;;5093477;28;20225;-88
2023/01/25 04:39:35;;;;;;;71.03;44.07;;;;;;;;;;5093266;28;20232;-88
2023/01/25 04:42:04;;;;;;;70.33;39.10;;;;;;;;;;5076546;28;20198;-88
2023/01/25 04:44:32;;;;;;;62.63;34.27;;;;;;;;;;5076319;28;20206;-88
2023/01/25 04:47:02;;;;;;;61.30;32.40;;;;;;;;;;5092995;28;20237;-88
2023/01/25 04:49:30;;;;;;;48.10;25.23;;;;;;;;;;5075891;28;20197;-88
2023/01/25 04:51:59;;;;;;;58.90;31.37;;;;;;;;;;5076142;28;20208;-88
2023/01/25 04:54:27;;;;;;;59.50;33.57;;;;;;;;;;5076141;28;20197;-88
2023/01/25 04:56:57;;;;;;;47.87;25.00;;;;;;;;;;5076234;28;20266;-88
2023/01/25 04:59:25;;;;;;;10.47;6.30;;;;;;;;;;5093158;28;20201;-88
2023/01/25 05:01:54;;;;;;;11.23;7.63;;;;;;;;;;5094115;28;20212;-88
2023/01/25 05:04:22;;;;;;;58.57;31.93;;;;;;;;;;5075870;28;20236;-87
2023/01/25 05:06:51;;;;;;;57.27;36.97;;;;;;;;;;5093900;28;20287;-88
2023/01/25 05:09:19;;;;;;;47.70;28.20;;;;;;;;;;5075772;28;20201;-88
2023/01/25 05:11:48;;;;;;;14.33;9.10;;;;;;;;;;5093847;28;20247;-88
2023/01/25 05:14:17;;;;;;;56.40;28.37;;;;;;;;;;5075918;28;20197;-87
2023/01/25 05:16:46;;;;;;;24.37;13.23;;;;;;;;;;5075745;28;20226;-88
2023/01/25 05:19:15;;;;;;;9.10;7.13;;;;;;;;;;5092762;28;20194;-88
2023/01/25 05:21:58;;;;;;;55.50;32.87;;;;;;;;;;5075824;28;20325;-88
2023/01/25 05:24:26;;;;;;;55.33;31.87;;;;;;;;;;5093810;28;20198;-88
2023/01/25 05:27:00;;;;;;;58.10;36.03;;;;;;;;;;5075792;28;20197;-88
2023/01/25 05:29:30;;;;;;;19.33;11.30;;;;;;;;;;5076215;28;20213;-88
2023/01/25 05:31:58;;;;;;;50.07;28.03;;;;;;;;;;5075906;28;20191;-87
2023/01/25 05:34:27;;;;;;;30.60;18.20;;;;;;;;;;5093850;28;20205;-88
2023/01/25 05:36:55;;;;;;;39.33;21.70;;;;;;;;;;5093782;28;20242;-88
2023/01/25 05:39:24;;;;;;;48.33;29.60;;;;;;;;;;5075650;28;20198;-87
2023/01/25 05:41:52;;;;;;;58.93;38.77;;;;;;;;;;5077665;28;20200;-87
2023/01/25 05:44:21;;;;;;;48.80;26.23;;;;;;;;;;5096476;28;20193;-88
2023/01/25 05:46:50;;;;;;;45.27;26.10;;;;;;;;;;5079442;28;20233;-88
2023/01/25 05:49:19;;;;;;;40.77;23.13;;;;;;;;;;5097277;28;20195;-88
2023/01/25 05:51:47;;;;;;;24.93;14.70;;;;;;;;;;5096455;28;20261;-88
2023/01/25 05:54:17;;;;;;;64.30;34.00;;;;;;;;;;5079251;28;20195;-88
2023/01/25 05:56:45;;;;;;;52.67;28.20;;;;;;;;;;5079378;28;20269;-88
2023/01/25 05:59:14;;;;;;;50.37;27.40;;;;;;;;;;5079264;28;20191;-87
2023/01/25 06:01:42;;;;;;;35.77;21.03;;;;;;;;;;5095954;28;20224;-87
2023/01/25 06:04:13;;;;;;;58.90;33.07;;;;;;;;;;5079123;28;20191;-88
2023/01/25 06:06:41;;;;;;;30.60;19.43;;;;;;;;;;5079012;28;20201;-88
2023/01/25 06:09:11;;;;;;;47.20;25.03;;;;;;;;;;5078826;28;20210;-87
2023/01/25 06:11:39;;;;;;;16.60;11.03;;;;;;;;;;5096949;28;20208;-88
2023/01/25 06:14:08;;;;;;;49.37;26.80;;;;;;;;;;5079012;28;20255;-88
2023/01/25 06:16:36;;;;;;;54.90;32.73;;;;;;;;;;5097146;28;20268;-88
2023/01/25 06:19:05;;;;;;;43.97;26.10;;;;;;;;;;5097008;28;20197;-88
2023/01/25 06:21:35;;;;;;;50.90;31.70;;;;;;;;;;5079209;28;20237;-88
2023/01/25 06:24:04;;;;;;;40.17;20.07;;;;;;;;;;5079137;28;20246;-88
2023/01/25 06:26:32;;;;;;;20.20;12.37;;;;;;;;;;5095836;28;20209;-88
2023/01/25 06:29:01;;;;;;;38.87;20.03;;;;;;;;;;5078956;28;20193;-87
2023/01/25 06:31:29;;;;;;;18.87;12.33;;;;;;;;;;5078585;28;20186;-87
2023/01/25 06:33:59;;;;;;;48.63;28.17;;;;;;;;;;5095959;28;20202;-87
2023/01/25 06:36:28;;;;;;;49.03;28.33;;;;;;;;;;5078833;28;20297;-88
2023/01/25 06:38:58;;;;;;;56.27;32.50;;;;;;;;;;5095387;28;20202;-87
2023/01/25 06:41:26;;;;;;;34.33;19.20;;;;;;;;;;5078575;28;20197;-88
2023/01/25 06:43:55;;;;;;;54.10;33.40;;;;;;;;;;5096557;28;20198;-88
2023/01/25 06:46:23;;;;;;;40.57;22.00;;;;;;;;;;5096201;28;20274;-88
2023/01/25 06:48:52;;;;;;;60.37;29.57;;;;;;;;;;5096850;28;20193;-89
2023/01/25 06:51:20;;;;;;;36.17;20.03;;;;;;;;;;5078533;28;20206;-89
2023/01/25 06:53:49;;;;;;;55.23;32.07;;;;;;;;;;5095762;28;20201;-89
2023/01/25 06:56:20;;;;;;;61.10;38.03;;;;;;;;;;5078075;28;20190;-89
2023/01/25 06:58:49;;;;;;;66.70;38.97;;;;;;;;;;5078652;28;20217;-88
2023/01/25 07:01:19;;;;;;;43.77;25.17;;;;;;;;;;5094762;28;20206;-89
2023/01/25 07:03:51;;;;;;;48.23;27.60;;;;;;;;;;5096164;28;20208;-88
2023/01/25 07:06:20;;;;;;;50.33;31.47;;;;;;;;;;5096138;28;20218;-89
2023/01/25 07:08:48;;;;;;;55.70;31.87;;;;;;;;;;5078253;28;20197;-89
2023/01/25 07:11:18;;;;;;;50.90;30.80;;;;;;;;;;5095997;28;20270;-89
2023/01/25 07:13:48;;;;;;;53.47;30.67;;;;;;;;;;5077959;28;20219;-89
2023/01/25 07:16:17;;;;;;;52.73;31.13;;;;;;;;;;5094781;28;20204;-88
2023/01/25 07:18:46;;;;;;;62.87;36.83;;;;;;;;;;5078077;28;20211;-87
2023/01/25 07:21:15;;;;;;;43.70;25.53;;;;;;;;;;5077483;28;20197;-87
2023/01/25 07:23:43;;;;;;;60.57;37.33;;;;;;;;;;5077650;28;20258;-87
2023/01/25 07:26:16;;;;;;;70.57;38.07;;;;;;;;;;5095299;28;20220;-87
2023/01/25 07:28:47;;;;;;;62.77;39.43;;;;;;;;;;5077721;28;20200;-87
2023/01/25 07:31:16;;;;;;;74.83;39.33;;;;;;;;;;5094220;28;20273;-87
2023/01/25 07:33:48;;;;;;;47.63;25.90;;;;;;;;;;5094492;28;20200;-87
2023/01/25 07:36:17;;;;;;;51.77;28.10;;;;;;;;;;5077735;28;20222;-87
2023/01/25 07:38:46;;;;;;;70.30;46.13;;;;;;;;;;5077327;28;20216;-87
2023/01/25 07:41:15;;;;;;;66.20;40.93;;;;;;;;;;5077441;28;20200;-87
2023/01/25 07:43:44;;;;;;;55.83;28.73;;;;;;;;;;5077659;28;20231;-88
2023/01/25 07:46:15;;;;;;;45.40;25.43;;;;;;;;;;5077196;28;20204;-87
2023/01/25 07:48:46;;;;;;;59.13;34.37;;;;;;;;;;5077908;28;20201;-87
2023/01/25 07:51:26;;;;;;;52.00;28.50;;;;;;;;;;5078069;28;20276;-87
2023/01/25 07:53:56;;;;;;;65.13;37.67;;;;;;;;;;5077468;28;20204;-86
2023/01/25 07:56:25;;;;;;;62.40;36.93;;;;;;;;;;5077340;28;20213;-86
2023/01/25 07:58:54;;;;;;;65.30;40.93;;;;;;;;;;5094179;28;20245;-87
2023/01/25 08:01:25;;;;;;;24.17;12.83;;;;;;;;;;5077219;28;20299;-86
2023/01/25 08:03:55;;;;;;;59.93;33.33;;;;;;;;;;5077493;28;20258;-86
2023/01/25 08:06:26;;;;;;;54.63;31.07;;;;;;;;;;5076527;28;20259;-87
2023/01/25 08:08:55;;;;;;;41.20;25.40;;;;;;;;;;5077348;28;20205;-87
2023/01/25 08:11:25;;;;;;;66.77;41.53;;;;;;;;;;5076769;28;20405;-87
2023/01/25 08:13:53;;;;;;;56.27;36.20;;;;;;;;;;5076817;28;20200;-87
2023/01/25 08:16:26;;;;;;;70.50;49.87;;;;;;;;;;5094855;28;20203;-88
2023/01/25 08:18:58;;;;;;;64.10;37.43;;;;;;;;;;5076295;28;20299;-87
2023/01/25 08:21:29;;;;;;;62.13;38.33;;;;;;;;;;5076705;28;20232;-87
2023/01/25 08:23:58;;;;;;;61.53;38.27;;;;;;;;;;5084069;28;20201;-86
2023/01/25 08:26:30;;;;;;;63.37;43.20;;;;;;;;;;5093275;28;20245;-86
2023/01/25 08:28:58;;;;;;;48.20;30.37;;;;;;;;;;5075691;28;20269;-85
2023/01/25 08:31:29;;;;;;;65.17;39.57;;;;;;;;;;5073369;28;20205;-91
2023/01/25 08:33:58;;;;;;;59.20;37.30;;;;;;;;;;5064662;28;20209;-87
2023/01/25 08:36:28;;;;;;;66.20;43.07;;;;;;;;;;5074243;28;20201;-88
2023/01/25 08:38:57;;;;;;;59.00;32.77;;;;;;;;;;5078684;28;20221;-87
2023/01/25 08:41:25;;;;;;;44.30;25.80;;;;;;;;;;5056667;28;20293;-87
2023/01/25 08:43:55;;;;;;;59.57;34.20;;;;;;;;;;5081848;28;20226;-87
2023/01/25 08:46:24;;;;;;;49.43;25.43;;;;;;;;;;5077064;28;20205;-88
2023/01/25 08:48:56;;;;;;;40.33;21.77;;;;;;;;;;5078085;28;20186;-88
2023/01/25 08:51:25;;;;;;;60.03;37.73;;;;;;;;;;5069453;28;20240;-87
2023/01/25 08:54:07;;;;;;;53.57;30.27;;;;;;;;;;5072980;28;20219;-88
2023/01/25 08:56:48;;;;;;;63.00;40.70;;;;;;;;;;5078489;28;20205;-88
2023/01/25 08:59:25;;;;;;;59.80;36.40;;;;;;;;;;5061909;28;20312;-88
2023/01/25 09:02:11;;;;;;;69.33;44.00;;;;;;;;;;5060743;28;20208;-87
2023/01/25 09:04:55;;;;;;;64.77;41.77;;;;;;;;;;5064073;28;20194;-83
2023/01/25 09:07:27;;;;;;;50.87;31.53;;;;;;;;;;5079549;28;20206;-86
2023/01/25 09:13:30;;;;;;;34.97;20.80;;;;;;;;;;5091703;28;20204;-87
2023/01/25 09:16:29;;;;;;;51.90;26.17;;;;;;;;;;4952572;28;20280;-88
2023/01/25 09:19:13;;;;;;;64.70;38.80;;;;;;;;;;4941730;28;20210;-88
2023/01/25 09:21:50;;;;;;;65.33;41.10;;;;;;;;;;4940327;28;20205;-86
2023/01/25 09:24:26;;;;;;;61.73;27.50;;;;;;;;;;4947404;28;20256;-86
2023/01/25 09:26:56;;;;;;;60.27;32.37;;;;;;;;;;4948586;28;20212;-86
2023/01/25 09:48:54;;;;;;;68.60;46.30;;;;;;;;;;4746023;29;20214;-87
2023/01/25 09:59:57;;;;;;;63.63;35.50;;;;;;;;;;4800513;29;20216;-88
2023/01/25 10:17:57;;;;;;;51.40;31.73;;;;;;;;;;4808854;29;20214;-86
2023/01/25 10:21:01;;;;;;;;;;;;;;;;;;;;;
2023/01/25 10:24:00;;;;;;;;;;;;;;;;;;;;;
2023/01/25 10:29:42;;;;;;;71.70;44.67;;;;;;;;;;4921048;28;20203;-86
2023/01/25 10:35:46;;;;;;;71.43;48.13;;;;;;;;;;4982910;28;20260;-86
2023/01/25 10:38:33;;;;;;;71.23;43.13;;;;;;;;;;4969779;28;20202;-87
2023/01/25 10:51:28;;;;;;;67.67;38.07;;;;;;;;;;5020378;28;20202;-89
2023/01/25 10:54:23;;;;;;;76.30;50.93;;;;;;;;;;5072503;28;20254;-89
2023/01/25 11:35:39;;;;;;;67.60;38.60;;;;;;;;;;4986498;26;20236;-86
2023/01/25 11:38:13;;;;;;;70.70;50.07;;;;;;;;;;4986827;28;20198;-86
2023/01/25 11:40:47;;;;;;;75.33;54.63;;;;;;;;;;4990547;28;20213;-86
2023/01/25 11:43:23;;;;;;;74.73;54.53;;;;;;;;;;4994650;28;20199;-85
2023/01/25 11:46:14;;;;;;;61.30;40.77;;;;;;;;;;4994312;28;20227;-85
2023/01/25 11:48:59;;;;;;;56.23;35.40;;;;;;;;;;4995417;28;20200;-86
2023/01/25 11:51:32;;;;;;;68.17;43.90;;;;;;;;;;4994640;28;20205;-86
2023/01/25 11:54:06;;;;;;;71.17;47.80;;;;;;;;;;4994612;28;20259;-85
2023/01/25 11:56:40;;;;;;;62.23;39.90;;;;;;;;;;4994594;28;20212;-86
2023/01/25 11:59:12;;;;;;;66.30;41.53;;;;;;;;;;4994464;28;20247;-85
2023/01/25 12:01:48;;;;;;;68.70;46.87;;;;;;;;;;4995414;28;20207;-85
2023/01/25 12:04:43;;;;;;;71.87;54.97;;;;;;;;;;4994305;28;20213;-85
2023/01/25 12:07:17;;;;;;;71.50;44.60;;;;;;;;;;4994481;28;20328;-86
2023/01/25 12:09:51;;;;;;;44.27;26.90;;;;;;;;;;4994167;28;20253;-85
2023/01/25 12:12:25;;;;;;;64.23;41.47;;;;;;;;;;4994475;28;20198;-86
2023/01/25 12:15:03;;;;;;;82.70;55.60;;;;;;;;;;4994245;28;20200;-85
2023/01/25 12:17:41;;;;;;;73.30;49.23;;;;;;;;;;4995262;28;20202;-86
2023/01/25 12:20:34;;;;;;;51.67;27.97;;;;;;;;;;4994192;28;20219;-86
2023/01/25 12:23:11;;;;;;;68.67;51.47;;;;;;;;;;4984740;28;20204;-85
2023/01/25 12:25:43;;;;;;;66.37;43.13;;;;;;;;;;4993929;28;20308;-86
2023/01/25 12:28:14;;;;;;;58.57;35.03;;;;;;;;;;4994042;28;20213;-85
2023/01/25 12:30:46;;;;;;;67.50;40.87;;;;;;;;;;4994033;28;20204;-85
2023/01/25 12:33:18;;;;;;;67.90;39.43;;;;;;;;;;4994004;28;20241;-85
2023/01/25 12:35:50;;;;;;;66.13;42.47;;;;;;;;;;4993644;28;20205;-85
2023/01/25 12:38:23;;;;;;;64.90;40.87;;;;;;;;;;4993958;28;20228;-86
2023/01/25 12:40:54;;;;;;;58.60;35.40;;;;;;;;;;4994024;28;20216;-85
2023/01/25 12:43:26;;;;;;;62.07;37.07;;;;;;;;;;5010276;28;20202;-86
2023/01/25 12:45:55;;;;;;;58.97;37.37;;;;;;;;;;4994031;28;20545;-85
2023/01/25 12:48:27;;;;;;;64.53;43.33;;;;;;;;;;4994808;28;20202;-85
2023/01/25 12:50:56;;;;;;;61.40;35.70;;;;;;;;;;5009317;28;20202;-86
2023/01/25 12:53:28;;;;;;;57.60;30.97;;;;;;;;;;5010397;28;20293;-85
2023/01/25 12:55:56;;;;;;;55.23;27.67;;;;;;;;;;4993650;28;20205;-84
2023/01/25 12:58:30;;;;;;;61.77;42.37;;;;;;;;;;4993720;28;20211;-85
2023/01/25 13:01:12;;;;;;;58.93;34.20;;;;;;;;;;4993493;28;20329;-84
2023/01/25 13:03:53;;;;;;;59.50;40.10;;;;;;;;;;4993717;28;20199;-87
2023/01/25 13:06:25;;;;;;;61.77;40.03;;;;;;;;;;4993449;28;20277;-86
2023/01/25 13:08:58;;;;;;;54.30;33.00;;;;;;;;;;5010089;28;20209;-85
2023/01/25 13:11:31;;;;;;;59.07;36.57;;;;;;;;;;4993679;28;20208;-84
2023/01/25 13:14:24;;;;;;;65.03;42.07;;;;;;;;;;5009657;28;20203;-85
2023/01/25 13:16:53;;;;;;;68.43;47.90;;;;;;;;;;4983653;28;20214;-85
2023/01/25 13:19:43;;;;;;;56.73;34.63;;;;;;;;;;4992934;28;20212;-84
2023/01/25 13:22:15;;;;;;;54.87;36.33;;;;;;;;;;4993110;28;20206;-84
2023/01/25 13:25:02;;;;;;;58.03;34.93;;;;;;;;;;4993150;28;20264;-85
2023/01/25 13:27:35;;;;;;;27.70;18.03;;;;;;;;;;5009366;28;20206;-84
2023/01/25 13:30:04;;;;;;;38.27;25.73;;;;;;;;;;4993146;28;20205;-84
2023/01/25 13:33:04;;;;;;;62.23;39.93;;;;;;;;;;4992789;28;20208;-84
2023/01/25 13:35:37;;;;;;;60.47;37.13;;;;;;;;;;4992679;28;20265;-84
2023/01/25 13:38:20;;;;;;;64.27;41.43;;;;;;;;;;4993291;28;20248;-84
2023/01/25 13:41:02;;;;;;;63.30;36.07;;;;;;;;;;4991657;28;20219;-84
2023/01/25 13:43:32;;;;;;;53.57;33.10;;;;;;;;;;4993225;28;20239;-84
2023/01/25 13:46:00;;;;;;;52.30;29.37;;;;;;;;;;4993272;28;20203;-84
2023/01/25 13:48:30;;;;;;;51.00;29.53;;;;;;;;;;5009558;28;20238;-84
2023/01/25 13:51:02;;;;;;;66.43;43.33;;;;;;;;;;4993262;28;20204;-84
2023/01/25 13:53:34;;;;;;;71.87;48.60;;;;;;;;;;5009431;28;20301;-84
2023/01/25 13:56:03;;;;;;;71.70;47.87;;;;;;;;;;4994110;28;20230;-84
2023/01/25 13:58:35;;;;;;;71.17;47.60;;;;;;;;;;5009051;28;20243;-86
2023/01/25 14:01:16;;;;;;;71.20;52.03;;;;;;;;;;4993747;28;20253;-86
2023/01/25 14:03:46;;;;;;;59.27;37.60;;;;;;;;;;5010678;28;20210;-84
2023/01/25 14:06:16;;;;;;;68.23;42.13;;;;;;;;;;4996601;28;20223;-84
2023/01/25 14:08:46;;;;;;;56.87;31.33;;;;;;;;;;5013074;28;20212;-84
2023/01/25 14:11:18;;;;;;;48.27;30.90;;;;;;;;;;4996815;28;20256;-84
2023/01/25 14:14:01;;;;;;;55.83;32.73;;;;;;;;;;4996863;28;20280;-84
2023/01/25 14:16:31;;;;;;;55.73;34.43;;;;;;;;;;4996705;28;20302;-84
2023/01/25 14:19:14;;;;;;;65.27;40.47;;;;;;;;;;4996262;28;20205;-85
2023/01/25 14:21:43;;;;;;;65.83;47.00;;;;;;;;;;4996390;28;20221;-85
2023/01/25 14:24:12;;;;;;;46.40;26.53;;;;;;;;;;4996555;28;20212;-84
2023/01/25 14:26:40;;;;;;;61.60;37.23;;;;;;;;;;4996394;28;20267;-84
2023/01/25 14:29:17;;;;;;;68.00;47.30;;;;;;;;;;5012269;28;20242;-84
2023/01/25 14:32:00;;;;;;;60.97;35.30;;;;;;;;;;4996110;28;20202;-85
2023/01/25 14:34:28;;;;;;;74.37;55.03;;;;;;;;;;4995831;28;20231;-84
2023/01/25 14:37:07;;;;;;;68.97;50.97;;;;;;;;;;4996069;28;20202;-84
2023/01/25 14:39:36;;;;;;;52.07;29.63;;;;;;;;;;4996065;28;20250;-86
2023/01/25 14:42:05;;;;;;;59.23;32.57;;;;;;;;;;4996067;28;20214;-85
2023/01/25 14:44:36;;;;;;;63.73;38.53;;;;;;;;;;4997185;28;20268;-85
2023/01/25 14:47:19;;;;;;;54.63;37.60;;;;;;;;;;4996179;28;20209;-85
2023/01/25 14:49:48;;;;;;;69.10;48.50;;;;;;;;;;4994874;28;20217;-85
2023/01/25 14:52:19;;;;;;;69.73;45.93;;;;;;;;;;4996101;28;20231;-85
2023/01/25 14:54:50;;;;;;;62.57;38.77;;;;;;;;;;4995867;28;20200;-85
2023/01/25 14:57:31;;;;;;;57.37;35.33;;;;;;;;;;4996019;28;20209;-85
2023/01/25 15:00:03;;;;;;;51.43;30.60;;;;;;;;;;4996102;28;20210;-86
2023/01/25 15:02:35;;;;;;;53.30;30.53;;;;;;;;;;4996918;28;20213;-86
2023/01/25 15:05:04;;;;;;;53.23;34.57;;;;;;;;;;5011864;28;20258;-86
2023/01/25 15:07:44;;;;;;;45.27;26.17;;;;;;;;;;4996135;28;20204;-86
2023/01/25 15:10:17;;;;;;;52.30;32.90;;;;;;;;;;4996486;28;20206;-86
2023/01/25 15:12:56;;;;;;;13.30;8.73;;;;;;;;;;4995441;28;20189;-86
2023/01/25 15:15:36;;;;;;;24.87;15.83;;;;;;;;;;4995103;28;20211;-86
2023/01/25 15:18:05;;;;;;;58.37;39.00;;;;;;;;;;4995330;28;20202;-86
2023/01/25 15:20:34;;;;;;;55.27;35.80;;;;;;;;;;5011819;28;20207;-86
2023/01/25 15:23:19;;;;;;;39.33;22.80;;;;;;;;;;4995353;28;20204;-86
2023/01/25 15:25:52;;;;;;;31.53;16.90;;;;;;;;;;4995423;28;20248;-86
2023/01/25 15:28:21;;;;;;;52.57;33.03;;;;;;;;;;4995353;28;20214;-86
2023/01/25 15:30:51;;;;;;;36.40;20.77;;;;;;;;;;4996500;28;20207;-86
2023/01/25 15:33:20;;;;;;;53.50;30.50;;;;;;;;;;4995987;28;20266;-86
2023/01/25 15:35:49;;;;;;;54.57;30.57;;;;;;;;;;4994925;28;20242;-86
2023/01/25 15:38:18;;;;;;;49.87;28.43;;;;;;;;;;4995185;28;20216;-86
2023/01/25 15:40:47;;;;;;;59.90;36.03;;;;;;;;;;4995526;28;20209;-86
2023/01/25 15:43:16;;;;;;;64.63;41.27;;;;;;;;;;4995130;28;20199;-87
2023/01/25 15:45:46;;;;;;;62.50;34.77;;;;;;;;;;4994897;28;20202;-87
2023/01/25 15:48:20;;;;;;;56.33;36.43;;;;;;;;;;4995170;28;20302;-86
2023/01/25 15:50:49;;;;;;;68.30;43.80;;;;;;;;;;4996098;28;20227;-87
2023/01/25 15:53:19;;;;;;;65.13;40.10;;;;;;;;;;4994808;28;20209;-86
2023/01/25 15:55:49;;;;;;;61.13;38.43;;;;;;;;;;4994786;28;20249;-88
2023/01/25 15:58:21;;;;;;;71.57;43.30;;;;;;;;;;4994810;28;20275;-88
2023/01/25 16:00:50;;;;;;;73.20;51.50;;;;;;;;;;4994645;28;20206;-88
2023/01/25 16:03:20;;;;;;;67.23;38.47;;;;;;;;;;5011095;28;20225;-87
2023/01/25 16:05:49;;;;;;;51.70;34.23;;;;;;;;;;4995608;28;20224;-88
2023/01/25 16:08:19;;;;;;;65.53;41.67;;;;;;;;;;4994764;28;20222;-88
2023/01/25 16:10:48;;;;;;;66.07;48.20;;;;;;;;;;4994164;28;20194;-87
2023/01/25 16:13:16;;;;;;;61.37;38.53;;;;;;;;;;4994510;28;20213;-88
2023/01/25 16:15:45;;;;;;;51.90;30.10;;;;;;;;;;4994527;28;20202;-88
2023/01/25 16:18:14;;;;;;;66.63;42.17;;;;;;;;;;4995228;28;20197;-88
2023/01/25 16:20:47;;;;;;;69.80;43.13;;;;;;;;;;4994716;28;20209;-88
2023/01/25 16:23:16;;;;;;;62.17;36.67;;;;;;;;;;4994047;28;20248;-86
2023/01/25 16:25:45;;;;;;;74.70;49.03;;;;;;;;;;5009828;28;20212;-85
2023/01/25 16:28:14;;;;;;;77.13;48.43;;;;;;;;;;4994061;28;20300;-86